createdAt,value
2023-03-24T00:01:02.687Z,2.30
2023-03-24T00:03:31.416Z,2.40
2023-03-24T00:06:02.337Z,2.30
2023-03-24T00:08:36.537Z,2.30
2023-03-24T00:11:14.244Z,2.30
2023-03-24T00:13:42.677Z,2.50
2023-03-24T00:16:13.175Z,2.60
2023-03-24T00:18:41.200Z,2.20
2023-03-24T00:21:11.392Z,2.80
2023-03-24T00:23:43.755Z,2.40
2023-03-24T00:26:16.900Z,2.00
2023-03-24T00:28:48.109Z,2.20
2023-03-24T00:31:17.577Z,1.80
2023-03-24T00:33:50.833Z,2.10
2023-03-24T00:36:21.242Z,2.20
2023-03-24T00:38:50.177Z,2.30
2023-03-24T00:41:20.294Z,2.70
2023-03-24T00:43:50.294Z,2.60
2023-03-24T00:46:39.023Z,1.90
2023-03-24T00:49:07.952Z,2.20
2023-03-24T00:51:40.011Z,2.70
2023-03-24T00:54:12.618Z,2.10
2023-03-24T00:56:41.429Z,1.90
2023-03-24T00:59:10.443Z,2.30
2023-03-24T01:01:41.357Z,1.70
2023-03-24T01:04:10.377Z,2.20
2023-03-24T01:09:07.760Z,2.80
2023-03-24T01:11:41.378Z,2.00
2023-03-24T01:14:11.533Z,2.20
2023-03-24T01:16:39.826Z,2.60
2023-03-24T01:19:10.552Z,2.60
2023-03-24T01:21:40.059Z,2.30
2023-03-24T01:26:36.259Z,2.30
2023-03-24T01:29:06.440Z,2.60
2023-03-24T01:31:34.604Z,2.20
2023-03-24T01:34:03.236Z,2.50
2023-03-24T01:36:31.095Z,2.00
2023-03-24T01:39:01.210Z,2.10
2023-03-24T01:41:40.938Z,2.90
2023-03-24T01:44:27.474Z,2.30
2023-03-24T01:46:56.935Z,2.10
2023-03-24T01:49:31.778Z,2.10
2023-03-24T01:52:02.350Z,1.90
2023-03-24T01:54:37.328Z,2.80
2023-03-24T01:57:22.883Z,1.90
2023-03-24T01:59:56.110Z,2.10
2023-03-24T02:02:46.077Z,2.50
2023-03-24T02:05:15.692Z,2.10
2023-03-24T02:08:07.312Z,2.40
2023-03-24T02:10:37.459Z,2.10
2023-03-24T02:13:06.502Z,1.90
2023-03-24T02:15:55.688Z,3.20
2023-03-24T02:18:45.082Z,2.40
2023-03-24T02:21:12.938Z,2.30
2023-03-24T02:24:07.490Z,2.20
2023-03-24T02:26:47.441Z,2.30
2023-03-24T02:29:36.932Z,1.90
2023-03-24T02:32:23.089Z,2.10
2023-03-24T02:35:22.759Z,2.80
2023-03-24T02:38:03.360Z,2.10
2023-03-24T02:40:43.866Z,2.40
2023-03-24T02:43:22.505Z,2.00
2023-03-24T02:46:05.617Z,1.90
2023-03-24T02:48:48.843Z,2.10
2023-03-24T02:51:55.558Z,2.00
2023-03-24T02:54:46.519Z,2.10
2023-03-24T02:57:54.450Z,2.50
2023-03-24T03:01:05.412Z,2.50
2023-03-24T03:03:53.266Z,2.40
2023-03-24T03:06:31.221Z,2.30
2023-03-24T03:09:02.880Z,2.60
2023-03-24T03:11:30.750Z,2.70
2023-03-24T03:14:04.534Z,2.30
2023-03-24T03:16:39.445Z,3.40
2023-03-24T03:19:19.549Z,3.20
2023-03-24T03:21:50.578Z,2.80
2023-03-24T03:24:27.251Z,2.70
2023-03-24T03:27:00.330Z,2.80
2023-03-24T03:29:34.716Z,3.40
2023-03-24T03:32:09.521Z,3.10
2023-03-24T03:34:49.105Z,2.60
2023-03-24T03:37:46.958Z,3.40
2023-03-24T03:40:21.345Z,2.80
2023-03-24T03:42:52.608Z,3.40
2023-03-24T03:45:20.601Z,3.60
2023-03-24T03:47:48.953Z,2.90
2023-03-24T03:50:17.027Z,3.20
2023-03-24T03:52:45.594Z,4.50
2023-03-24T03:55:14.601Z,4.70
2023-03-24T03:57:43.063Z,4.00
2023-03-24T04:00:17.151Z,3.90
2023-03-24T04:02:54.612Z,3.50
2023-03-24T04:05:29.191Z,3.80
2023-03-24T04:08:17.039Z,3.80
2023-03-24T04:11:17.562Z,3.40
2023-03-24T04:14:33.376Z,3.40
2023-03-24T04:17:55.699Z,2.90
2023-03-24T04:21:17.392Z,3.20
2023-03-24T04:23:54.350Z,3.10
2023-03-24T04:26:34.344Z,3.40
2023-03-24T04:29:22.407Z,4.10
2023-03-24T04:31:56.277Z,3.80
2023-03-24T04:34:32.984Z,4.20
2023-03-24T04:37:16.226Z,4.10
2023-03-24T04:39:58.828Z,4.10
2023-03-24T04:42:42.096Z,5.40
2023-03-24T04:45:10.446Z,3.90
2023-03-24T04:47:54.669Z,4.70
2023-03-24T04:50:43.199Z,5.00
2023-03-24T04:53:15.313Z,3.90
2023-03-24T04:55:49.616Z,4.40
2023-03-24T04:58:22.853Z,4.30
2023-03-24T05:00:51.625Z,4.30
2023-03-24T05:03:19.620Z,4.10
2023-03-24T05:05:49.890Z,5.40
2023-03-24T05:08:19.040Z,4.90
2023-03-24T05:10:47.435Z,4.30
2023-03-24T05:13:16.030Z,5.00
2023-03-24T05:15:47.585Z,4.70
2023-03-24T05:18:29.305Z,5.50
2023-03-24T05:20:57.785Z,4.50
2023-03-24T05:23:26.354Z,4.70
2023-03-24T05:25:54.263Z,4.80
2023-03-24T05:28:23.329Z,4.30
2023-03-24T05:30:53.469Z,4.30
2023-03-24T05:33:37.653Z,4.90
2023-03-24T05:36:06.037Z,4.30
2023-03-24T05:38:34.364Z,4.50
2023-03-24T05:41:03.356Z,4.50
2023-03-24T05:43:35.420Z,3.80
2023-03-24T05:46:14.195Z,4.00
2023-03-24T05:48:44.264Z,4.60
2023-03-24T05:51:20.566Z,4.30
2023-03-24T05:53:53.581Z,4.50
2023-03-24T05:56:32.815Z,5.10
2023-03-24T05:59:21.342Z,4.60
2023-03-24T06:02:03.124Z,4.30
2023-03-24T06:04:53.144Z,4.30
2023-03-24T06:07:26.669Z,4.60
2023-03-24T06:09:58.276Z,5.00
2023-03-24T06:12:27.772Z,4.60
2023-03-24T06:15:01.924Z,4.70
2023-03-24T06:17:30.628Z,3.90
2023-03-24T06:20:04.144Z,5.10
2023-03-24T06:22:47.516Z,4.00
2023-03-24T06:25:20.745Z,3.90
2023-03-24T06:28:12.525Z,3.70
2023-03-24T06:30:44.174Z,4.00
2023-03-24T06:33:13.863Z,3.80
2023-03-24T06:35:43.526Z,3.20
2023-03-24T06:38:15.429Z,3.40
2023-03-24T06:40:43.927Z,3.10
2023-03-24T06:43:11.766Z,3.90
2023-03-24T06:45:40.651Z,3.80
2023-03-24T06:48:10.926Z,3.10
2023-03-24T06:50:41.336Z,3.50
2023-03-24T06:53:10.509Z,3.70
2023-03-24T06:55:39.024Z,3.40
2023-03-24T06:58:08.206Z,4.00
2023-03-24T07:00:47.206Z,4.00
2023-03-24T07:03:36.697Z,4.10
2023-03-24T07:06:26.321Z,3.80
2023-03-24T07:08:57.423Z,3.90
2023-03-24T07:11:27.588Z,3.50
2023-03-24T07:13:58.335Z,5.10
2023-03-24T07:16:27.064Z,4.20
2023-03-24T07:19:02.815Z,3.90
2023-03-24T07:21:31.773Z,4.50
2023-03-24T07:24:02.558Z,4.50
2023-03-24T07:26:46.288Z,5.30
2023-03-24T07:29:20.649Z,5.40
2023-03-24T07:32:07.905Z,4.70
2023-03-24T07:34:37.133Z,4.90
2023-03-24T07:39:33.192Z,5.10
2023-03-24T07:42:01.091Z,4.80
2023-03-24T07:44:37.520Z,4.30
2023-03-24T07:47:06.810Z,4.20
2023-03-24T07:49:34.784Z,4.70
2023-03-24T07:52:06.632Z,5.20
2023-03-24T07:54:39.699Z,5.00
2023-03-24T07:57:10.400Z,4.70
2023-03-24T07:59:39.173Z,4.90
2023-03-24T08:02:21.174Z,4.60
2023-03-24T08:04:56.772Z,4.80
2023-03-24T08:10:29.725Z,4.10
2023-03-24T08:12:58.320Z,4.60
2023-03-24T08:15:27.376Z,4.30
2023-03-24T08:17:56.733Z,4.90
2023-03-24T08:20:27.341Z,3.90
2023-03-24T08:22:55.605Z,4.40
2023-03-24T08:25:27.357Z,4.70
2023-03-24T08:27:55.334Z,4.50
2023-03-24T08:30:24.967Z,4.70
2023-03-24T08:32:55.654Z,5.70
2023-03-24T08:35:27.673Z,5.90
2023-03-24T08:37:55.544Z,5.30
2023-03-24T08:40:24.356Z,3.90
2023-03-24T08:42:55.762Z,5.00
2023-03-24T08:45:27.506Z,5.10
2023-03-24T08:47:56.083Z,4.80
2023-03-24T08:50:28.190Z,5.80
2023-03-24T08:52:57.276Z,5.60
2023-03-24T08:55:25.531Z,4.90
2023-03-24T08:57:53.508Z,4.90
2023-03-24T09:00:22.714Z,5.50
2023-03-24T09:02:52.602Z,4.80
2023-03-24T09:05:29.841Z,5.10
2023-03-24T09:08:09.244Z,5.20
2023-03-24T09:10:37.045Z,4.90
2023-03-24T09:13:05.267Z,5.10
2023-03-24T09:15:33.804Z,4.80
2023-03-24T09:18:02.856Z,3.70
2023-03-24T09:25:27.048Z,4.10
2023-03-24T09:27:56.492Z,4.30
2023-03-24T09:30:24.467Z,4.30
2023-03-24T09:32:52.287Z,4.40
2023-03-24T09:35:20.095Z,4.70
2023-03-24T09:37:47.900Z,4.30
2023-03-24T09:40:22.383Z,4.30
2023-03-24T09:43:25.487Z,4.30
2023-03-24T09:45:59.085Z,4.20
2023-03-24T09:48:39.526Z,4.10
2023-03-24T09:51:25.716Z,4.60
2023-03-24T09:54:11.889Z,3.80
2023-03-24T09:56:44.005Z,3.10
2023-03-24T09:59:18.312Z,3.50
2023-03-24T10:01:46.945Z,3.90
2023-03-24T10:04:18.396Z,4.10
2023-03-24T10:06:52.883Z,4.20
2023-03-24T10:09:23.952Z,3.90
2023-03-24T10:12:06.916Z,4.20
2023-03-24T10:15:11.872Z,3.10
2023-03-24T10:18:01.650Z,3.10
2023-03-24T10:20:53.720Z,3.40
2023-03-24T10:23:24.381Z,3.20
2023-03-24T10:26:41.297Z,3.10
2023-03-24T10:29:32.843Z,2.90
2023-03-24T10:32:05.182Z,2.60
2023-03-24T10:34:34.430Z,3.50
2023-03-24T10:37:04.250Z,3.80
2023-03-24T10:42:07.153Z,3.30
2023-03-24T10:44:35.084Z,4.00
2023-03-24T10:47:04.919Z,3.00
2023-03-24T10:49:33.746Z,3.80
2023-03-24T10:52:08.683Z,3.90
2023-03-24T10:54:37.109Z,3.40
2023-03-24T10:57:15.763Z,3.90
2023-03-24T10:59:54.097Z,3.80
2023-03-24T11:02:26.876Z,4.70
2023-03-24T11:04:58.870Z,3.70
2023-03-24T11:07:38.846Z,3.80
2023-03-24T11:10:09.559Z,3.80
2023-03-24T11:12:39.123Z,3.50
2023-03-24T11:15:21.209Z,3.70
2023-03-24T11:17:59.119Z,3.70
2023-03-24T11:20:38.895Z,3.80
2023-03-24T11:24:11.332Z,3.20
2023-03-24T11:26:41.335Z,3.80
2023-03-24T11:29:18.876Z,3.90
2023-03-24T11:31:56.940Z,3.10
2023-03-24T11:34:27.238Z,3.00
2023-03-24T11:37:04.046Z,3.10
2023-03-24T11:39:36.787Z,3.20
2023-03-24T11:42:27.664Z,3.60
2023-03-24T11:44:56.457Z,3.00
2023-03-24T11:47:33.396Z,3.20
2023-03-24T11:50:19.028Z,3.30
2023-03-24T11:53:15.613Z,2.60
2023-03-24T11:55:50.480Z,3.10
2023-03-24T11:58:35.519Z,2.60
2023-03-24T12:01:11.983Z,2.70
2023-03-24T12:03:54.164Z,3.00
2023-03-24T12:06:40.819Z,2.20
2023-03-24T12:09:20.477Z,2.50
2023-03-24T12:12:09.716Z,3.30
2023-03-24T12:15:26.779Z,2.80
2023-03-24T12:17:58.468Z,2.40
2023-03-24T12:20:26.222Z,2.40
2023-03-24T12:23:26.610Z,2.80
2023-03-24T12:26:16.825Z,2.90
2023-03-24T12:29:27.819Z,2.60
2023-03-24T12:32:37.521Z,2.30
2023-03-24T12:35:12.550Z,2.80
2023-03-24T12:37:43.377Z,2.60
2023-03-24T12:40:11.220Z,2.30
2023-03-24T12:42:44.777Z,2.30
2023-03-24T12:45:42.413Z,2.80
2023-03-24T12:48:25.651Z,2.40
2023-03-24T12:51:05.486Z,2.20
2023-03-24T12:54:05.924Z,1.80
2023-03-24T12:56:33.619Z,2.10
2023-03-24T12:59:15.639Z,2.40
2023-03-24T13:01:52.833Z,3.20
2023-03-24T13:04:29.103Z,2.30
2023-03-24T13:07:25.738Z,2.00
2023-03-24T13:10:07.839Z,2.00
2023-03-24T13:12:53.181Z,1.70
2023-03-24T13:15:27.374Z,1.80
2023-03-24T13:18:16.865Z,1.80
2023-03-24T13:20:49.695Z,2.00
2023-03-24T13:27:23.347Z,1.90
2023-03-24T13:30:14.713Z,1.80
2023-03-24T13:32:50.461Z,1.70
2023-03-24T13:35:53.405Z,1.80
2023-03-24T13:38:46.153Z,2.00
2023-03-24T13:41:24.012Z,1.70
2023-03-24T13:43:59.239Z,2.20
2023-03-24T13:46:28.770Z,1.70
2023-03-24T13:48:58.950Z,1.90
2023-03-24T13:51:35.613Z,1.70
2023-03-24T13:54:24.027Z,1.80
2023-03-24T13:57:01.070Z,1.70
2023-03-24T13:59:41.688Z,2.30
2023-03-24T14:02:22.894Z,2.00
2023-03-24T14:07:39.385Z,1.80
2023-03-24T14:10:23.252Z,1.90
2023-03-24T14:13:01.903Z,1.50
2023-03-24T14:15:29.816Z,1.60
2023-03-24T14:18:14.538Z,1.90
2023-03-24T14:20:59.681Z,1.70
2023-03-24T14:27:23.629Z,1.40
2023-03-24T14:29:52.327Z,1.80
2023-03-24T14:32:23.152Z,1.40
2023-03-24T14:35:00.331Z,1.50
2023-03-24T14:37:28.958Z,1.70
2023-03-24T14:39:58.350Z,1.40
2023-03-24T14:42:36.154Z,1.60
2023-03-24T14:45:31.293Z,1.30
2023-03-24T14:48:03.255Z,2.00
2023-03-24T14:50:32.470Z,1.70
2023-03-24T14:55:33.386Z,1.50
2023-03-24T14:58:09.984Z,1.50
2023-03-24T15:00:51.802Z,1.50
2023-03-24T15:03:59.300Z,1.50
2023-03-24T15:06:27.475Z,1.80
2023-03-24T15:09:07.479Z,1.40
2023-03-24T15:11:39.218Z,1.70
2023-03-24T15:14:17.255Z,1.90
2023-03-24T15:16:53.488Z,1.80
2023-03-24T15:19:24.770Z,2.10
2023-03-24T15:22:07.255Z,1.80
2023-03-24T15:24:37.190Z,1.70
2023-03-24T15:27:07.997Z,1.70
2023-03-24T15:29:41.758Z,1.80
2023-03-24T15:32:18.812Z,2.00
2023-03-24T15:34:50.685Z,1.90
2023-03-24T15:37:40.019Z,1.50
2023-03-24T15:40:26.940Z,1.90
2023-03-24T15:42:57.112Z,1.90
2023-03-24T15:45:30.504Z,2.10
2023-03-24T15:48:05.312Z,1.60
2023-03-24T15:50:38.667Z,2.30
2023-03-24T15:53:15.822Z,2.10
2023-03-24T15:55:44.044Z,2.00
2023-03-24T15:58:28.574Z,2.20
2023-03-24T16:00:59.933Z,1.90
2023-03-24T16:03:30.973Z,2.50
2023-03-24T16:05:58.880Z,2.10
2023-03-24T16:08:39.077Z,2.00
2023-03-24T16:11:11.955Z,1.80
2023-03-24T16:13:42.953Z,2.40
2023-03-24T16:16:13.794Z,2.00
2023-03-24T16:18:47.089Z,2.10
2023-03-24T16:21:16.970Z,2.00
2023-03-24T16:23:45.911Z,2.30
2023-03-24T16:26:25.491Z,2.30
2023-03-24T16:28:54.450Z,2.30
2023-03-24T16:31:22.905Z,2.40
2023-03-24T16:33:55.991Z,2.70
2023-03-24T16:36:29.261Z,2.10
2023-03-24T16:38:59.783Z,3.00
2023-03-24T16:41:28.142Z,2.60
2023-03-24T16:43:55.850Z,3.40
2023-03-24T16:46:26.478Z,3.30
2023-03-24T16:48:55.716Z,2.90
2023-03-24T16:51:23.616Z,3.00
2023-03-24T16:53:51.347Z,2.90
2023-03-24T16:56:21.846Z,3.00
2023-03-24T16:58:53.197Z,3.00
2023-03-24T17:01:35.940Z,3.20
2023-03-24T17:04:13.949Z,2.90
2023-03-24T17:06:47.041Z,3.60
2023-03-24T17:09:15.436Z,3.30
2023-03-24T17:11:50.352Z,2.90
2023-03-24T17:14:18.102Z,4.50
2023-03-24T17:16:49.662Z,3.90
2023-03-24T17:19:20.909Z,3.40
2023-03-24T17:22:02.239Z,3.50
2023-03-24T17:24:35.737Z,4.40
2023-03-24T17:27:10.064Z,3.00
2023-03-24T17:29:37.747Z,4.30
2023-03-24T17:32:05.727Z,4.60
2023-03-24T17:34:33.937Z,4.60
2023-03-24T17:37:01.679Z,4.10
2023-03-24T17:39:29.451Z,4.00
2023-03-24T17:42:01.120Z,3.00
2023-03-24T17:44:28.854Z,3.20
2023-03-24T17:46:56.745Z,3.60
2023-03-24T17:49:24.686Z,3.70
2023-03-24T17:51:52.416Z,4.20
2023-03-24T17:54:21.162Z,3.90
2023-03-24T17:56:48.928Z,3.20
2023-03-24T17:59:17.699Z,4.20
2023-03-24T18:01:47.274Z,5.00
2023-03-24T18:04:15.622Z,4.00
2023-03-24T18:06:43.903Z,3.30
2023-03-24T18:09:11.595Z,3.10
2023-03-24T18:11:39.282Z,3.00
2023-03-24T18:14:09.170Z,2.70
2023-03-24T18:16:39.233Z,2.70
2023-03-24T18:19:07.279Z,2.80
2023-03-24T18:21:35.178Z,3.20
2023-03-24T18:24:04.574Z,3.00
2023-03-24T18:29:01.449Z,2.10
2023-03-24T18:31:32.365Z,3.00
2023-03-24T18:34:00.649Z,3.20
2023-03-24T18:36:29.161Z,3.00
2023-03-24T18:38:59.234Z,2.80
2023-03-24T18:41:28.433Z,2.60
2023-03-24T18:43:58.139Z,3.20
2023-03-24T18:46:27.218Z,2.30
2023-03-24T18:48:55.318Z,3.20
2023-03-24T18:51:25.380Z,3.20
2023-03-24T18:53:53.523Z,3.10
2023-03-24T18:56:23.013Z,3.60
2023-03-24T18:58:52.178Z,2.70
2023-03-24T19:01:25.243Z,3.20
2023-03-24T19:03:54.031Z,3.10
2023-03-24T19:06:22.246Z,3.50
2023-03-24T19:08:51.867Z,3.70
2023-03-24T19:11:20.050Z,3.80
2023-03-24T19:13:50.388Z,3.60
2023-03-24T19:16:19.647Z,3.60
2023-03-24T19:18:48.659Z,4.80
2023-03-24T19:21:17.303Z,4.50
2023-03-24T19:23:46.939Z,4.00
2023-03-24T19:26:16.565Z,4.20
2023-03-24T19:28:44.311Z,3.70
2023-03-24T19:31:15.182Z,4.40
2023-03-24T19:33:43.635Z,4.80
2023-03-24T19:36:11.453Z,5.60
2023-03-24T19:38:39.950Z,5.50
2023-03-24T19:41:10.254Z,5.70
2023-03-24T19:43:38.702Z,5.90
2023-03-24T19:46:08.181Z,5.90
2023-03-24T19:48:36.344Z,5.80
2023-03-24T19:51:04.338Z,6.90
2023-03-24T19:53:32.290Z,8.10
2023-03-24T19:56:01.138Z,6.40
2023-03-24T19:58:29.132Z,7.40
2023-03-24T20:00:57.203Z,5.00
2023-03-24T20:03:25.116Z,7.00
2023-03-24T20:05:53.124Z,7.20
2023-03-24T20:08:21.592Z,6.20
2023-03-24T20:10:49.301Z,6.90
2023-03-24T20:13:16.993Z,7.40
2023-03-24T20:15:46.552Z,6.50
2023-03-24T20:20:42.449Z,5.90
2023-03-24T20:23:10.553Z,5.50
2023-03-24T20:25:42.012Z,6.20
2023-03-24T20:28:12.116Z,5.90
2023-03-24T20:30:40.115Z,6.60
2023-03-24T20:33:08.098Z,7.00
2023-03-24T20:35:36.770Z,5.60
2023-03-24T20:38:04.700Z,4.70
2023-03-24T20:40:32.437Z,6.10
2023-03-24T20:43:00.166Z,5.30
2023-03-24T20:45:28.031Z,5.80
2023-03-24T20:47:56.059Z,5.00
2023-03-24T20:50:24.852Z,4.90
2023-03-24T20:52:52.563Z,4.10
2023-03-24T20:55:20.348Z,4.90
2023-03-24T20:57:48.293Z,5.10
2023-03-24T21:00:16.524Z,4.90
2023-03-24T21:02:45.089Z,6.00
2023-03-24T21:05:12.985Z,4.90
2023-03-24T21:07:43.808Z,4.70
2023-03-24T21:10:12.051Z,4.80
2023-03-24T21:12:52.869Z,4.30
2023-03-24T21:15:24.873Z,4.80
2023-03-24T21:17:54.513Z,4.30
2023-03-24T21:26:18.925Z,3.90
2023-03-24T21:28:46.734Z,3.70
2023-03-24T21:31:24.030Z,2.90
2023-03-24T21:33:53.188Z,2.50
2023-03-24T21:36:23.240Z,2.50
2023-03-24T21:38:51.728Z,3.00
2023-03-24T21:41:20.645Z,2.80
2023-03-24T21:43:51.051Z,2.90
2023-03-24T21:46:22.232Z,3.30
2023-03-24T21:48:52.085Z,2.60
2023-03-24T21:51:23.992Z,2.90
2023-03-24T21:53:55.738Z,2.60
2023-03-24T21:56:23.553Z,2.70
2023-03-24T21:58:54.839Z,3.00
2023-03-24T22:01:23.400Z,2.70
2023-03-24T22:03:54.120Z,2.60
2023-03-24T22:06:22.831Z,2.50
2023-03-24T22:08:53.172Z,3.10
2023-03-24T22:11:21.107Z,3.00
2023-03-24T22:13:48.774Z,2.80
2023-03-24T22:16:16.514Z,3.40
2023-03-24T22:18:44.346Z,3.00
2023-03-24T22:21:12.494Z,3.40
2023-03-24T22:27:11.718Z,3.00
2023-03-24T22:29:40.725Z,3.10
2023-03-24T22:32:08.547Z,3.70
2023-03-24T22:34:36.389Z,3.20
2023-03-24T22:37:04.140Z,3.80
2023-03-24T22:39:34.051Z,3.30
2023-03-24T22:42:01.769Z,2.80
2023-03-24T22:44:33.801Z,3.00
2023-03-24T22:47:04.579Z,3.60
2023-03-24T22:49:33.254Z,3.30
2023-03-24T22:52:01.053Z,2.50
2023-03-24T22:54:29.638Z,3.00
2023-03-24T22:56:57.497Z,3.50
2023-03-24T22:59:25.751Z,2.80
2023-03-24T23:02:02.390Z,3.20
2023-03-24T23:04:37.097Z,3.60
2023-03-24T23:07:06.611Z,3.90
2023-03-24T23:12:02.660Z,3.30
2023-03-24T23:14:31.417Z,3.50
2023-03-24T23:16:59.297Z,3.40
2023-03-24T23:19:28.292Z,3.80
2023-03-24T23:21:56.475Z,3.50
2023-03-24T23:24:24.342Z,3.20
2023-03-24T23:26:52.205Z,3.10
2023-03-24T23:29:19.966Z,3.10
2023-03-24T23:31:47.809Z,3.30
2023-03-24T23:34:15.581Z,2.80
2023-03-24T23:36:45.066Z,2.90
2023-03-24T23:39:12.870Z,3.40
2023-03-24T23:41:40.928Z,3.60
2023-03-24T23:44:09.957Z,3.40
2023-03-24T23:46:39.826Z,3.40
2023-03-24T23:49:09.454Z,3.20
2023-03-24T23:51:37.187Z,3.60
2023-03-24T23:54:05.090Z,3.50
2023-03-24T23:56:37.102Z,4.10
2023-03-24T23:59:06.769Z,3.80
